sensor_id;sensor_type;location;lat;lon;timestamp;P1;durP1;ratioP1;P2;durP2;ratioP2
41685;SDS011;27370;42.764;23.432;2023-08-06T00:00:51;11.57;;;5.15;;
41685;SDS011;27370;42.764;23.432;2023-08-06T00:03:17;11.75;;;5.15;;
41685;SDS011;27370;42.764;23.432;2023-08-06T00:05:42;12.25;;;4.93;;
41685;SDS011;27370;42.764;23.432;2023-08-06T00:08:08;12.18;;;4.93;;
41685;SDS011;27370;42.764;23.432;2023-08-06T00:10:33;12.32;;;5.50;;
41685;SDS011;27370;42.764;23.432;2023-08-06T00:12:59;13.20;;;5.10;;
41685;SDS011;27370;42.764;23.432;2023-08-06T00:15:24;11.85;;;5.32;;
41685;SDS011;27370;42.764;23.432;2023-08-06T00:17:50;10.85;;;5.40;;
41685;SDS011;27370;42.764;23.432;2023-08-06T00:20:15;13.05;;;5.40;;
41685;SDS011;27370;42.764;23.432;2023-08-06T00:22:41;14.38;;;6.07;;
41685;SDS011;27370;42.764;23.432;2023-08-06T00:25:06;12.10;;;5.72;;
41685;SDS011;27370;42.764;23.432;2023-08-06T00:27:32;12.70;;;6.63;;
41685;SDS011;27370;42.764;23.432;2023-08-06T00:29:58;14.32;;;6.78;;
41685;SDS011;27370;42.764;23.432;2023-08-06T00:32:23;13.02;;;6.70;;
41685;SDS011;27370;42.764;23.432;2023-08-06T00:34:49;13.90;;;6.47;;
41685;SDS011;27370;42.764;23.432;2023-08-06T00:37:15;13.18;;;6.47;;
41685;SDS011;27370;42.764;23.432;2023-08-06T00:39:41;14.82;;;6.55;;
41685;SDS011;27370;42.764;23.432;2023-08-06T00:42:08;13.15;;;5.80;;
41685;SDS011;27370;42.764;23.432;2023-08-06T00:44:33;16.02;;;6.20;;
41685;SDS011;27370;42.764;23.432;2023-08-06T00:47:00;12.55;;;5.97;;
41685;SDS011;27370;42.764;23.432;2023-08-06T00:49:26;12.57;;;5.97;;
41685;SDS011;27370;42.764;23.432;2023-08-06T00:51:51;14.52;;;6.32;;
41685;SDS011;27370;42.764;23.432;2023-08-06T00:54:17;13.15;;;5.72;;
41685;SDS011;27370;42.764;23.432;2023-08-06T00:56:42;13.05;;;6.05;;
41685;SDS011;27370;42.764;23.432;2023-08-06T00:59:08;12.80;;;6.22;;
41685;SDS011;27370;42.764;23.432;2023-08-06T01:01:35;14.75;;;6.72;;
41685;SDS011;27370;42.764;23.432;2023-08-06T01:04:01;15.45;;;7.20;;
41685;SDS011;27370;42.764;23.432;2023-08-06T01:06:42;14.55;;;6.22;;
41685;SDS011;27370;42.764;23.432;2023-08-06T01:09:18;12.13;;;6.45;;
41685;SDS011;27370;42.764;23.432;2023-08-06T01:15:02;14.25;;;6.60;;
41685;SDS011;27370;42.764;23.432;2023-08-06T01:17:38;13.30;;;6.70;;
41685;SDS011;27370;42.764;23.432;2023-08-06T01:20:05;10.95;;;5.50;;
41685;SDS011;27370;42.764;23.432;2023-08-06T01:22:31;13.48;;;6.43;;
41685;SDS011;27370;42.764;23.432;2023-08-06T01:24:56;15.23;;;7.05;;
41685;SDS011;27370;42.764;23.432;2023-08-06T01:27:25;15.82;;;7.40;;
41685;SDS011;27370;42.764;23.432;2023-08-06T01:32:46;16.13;;;7.75;;
41685;SDS011;27370;42.764;23.432;2023-08-06T01:35:16;17.80;;;8.48;;
41685;SDS011;27370;42.764;23.432;2023-08-06T01:37:44;17.13;;;9.10;;
41685;SDS011;27370;42.764;23.432;2023-08-06T01:40:11;18.70;;;9.98;;
41685;SDS011;27370;42.764;23.432;2023-08-06T01:42:37;18.05;;;9.48;;
41685;SDS011;27370;42.764;23.432;2023-08-06T01:45:04;17.00;;;8.75;;
41685;SDS011;27370;42.764;23.432;2023-08-06T01:47:33;21.13;;;9.60;;
41685;SDS011;27370;42.764;23.432;2023-08-06T01:49:59;15.20;;;7.93;;
41685;SDS011;27370;42.764;23.432;2023-08-06T01:52:25;14.57;;;7.57;;
41685;SDS011;27370;42.764;23.432;2023-08-06T01:54:51;17.15;;;7.40;;
41685;SDS011;27370;42.764;23.432;2023-08-06T01:57:17;16.25;;;7.57;;
41685;SDS011;27370;42.764;23.432;2023-08-06T01:59:42;14.20;;;7.10;;
41685;SDS011;27370;42.764;23.432;2023-08-06T02:02:08;13.70;;;7.55;;
41685;SDS011;27370;42.764;23.432;2023-08-06T02:04:33;16.60;;;7.95;;
41685;SDS011;27370;42.764;23.432;2023-08-06T02:06:59;15.00;;;7.22;;
41685;SDS011;27370;42.764;23.432;2023-08-06T02:09:24;17.70;;;8.13;;
41685;SDS011;27370;42.764;23.432;2023-08-06T02:11:51;16.52;;;8.15;;
41685;SDS011;27370;42.764;23.432;2023-08-06T02:14:16;17.88;;;8.13;;
41685;SDS011;27370;42.764;23.432;2023-08-06T02:16:42;15.82;;;7.75;;
41685;SDS011;27370;42.764;23.432;2023-08-06T02:19:07;16.25;;;7.88;;
41685;SDS011;27370;42.764;23.432;2023-08-06T02:21:33;14.88;;;7.25;;
41685;SDS011;27370;42.764;23.432;2023-08-06T02:23:58;16.75;;;8.13;;
41685;SDS011;27370;42.764;23.432;2023-08-06T02:26:24;14.00;;;7.45;;
41685;SDS011;27370;42.764;23.432;2023-08-06T02:28:49;14.73;;;7.57;;
41685;SDS011;27370;42.764;23.432;2023-08-06T02:31:15;15.55;;;7.72;;
41685;SDS011;27370;42.764;23.432;2023-08-06T02:33:40;16.83;;;8.00;;
41685;SDS011;27370;42.764;23.432;2023-08-06T02:36:06;15.63;;;7.60;;
41685;SDS011;27370;42.764;23.432;2023-08-06T02:38:31;20.27;;;8.65;;
41685;SDS011;27370;42.764;23.432;2023-08-06T02:40:57;16.67;;;8.38;;
41685;SDS011;27370;42.764;23.432;2023-08-06T02:43:23;17.92;;;8.60;;
41685;SDS011;27370;42.764;23.432;2023-08-06T02:45:49;17.88;;;8.18;;
41685;SDS011;27370;42.764;23.432;2023-08-06T02:48:15;20.23;;;9.00;;
41685;SDS011;27370;42.764;23.432;2023-08-06T02:50:41;18.10;;;7.78;;
41685;SDS011;27370;42.764;23.432;2023-08-06T02:53:07;15.88;;;7.53;;
41685;SDS011;27370;42.764;23.432;2023-08-06T02:55:34;18.67;;;8.02;;
41685;SDS011;27370;42.764;23.432;2023-08-06T02:58:02;17.80;;;7.53;;
41685;SDS011;27370;42.764;23.432;2023-08-06T03:00:32;18.30;;;8.57;;
41685;SDS011;27370;42.764;23.432;2023-08-06T03:02:59;17.35;;;8.00;;
41685;SDS011;27370;42.764;23.432;2023-08-06T03:05:35;19.20;;;9.02;;
41685;SDS011;27370;42.764;23.432;2023-08-06T03:08:01;17.65;;;8.68;;
41685;SDS011;27370;42.764;23.432;2023-08-06T03:10:29;20.17;;;9.63;;
41685;SDS011;27370;42.764;23.432;2023-08-06T03:12:57;16.35;;;8.57;;
41685;SDS011;27370;42.764;23.432;2023-08-06T03:15:23;17.27;;;9.07;;
41685;SDS011;27370;42.764;23.432;2023-08-06T03:17:49;19.50;;;9.45;;
41685;SDS011;27370;42.764;23.432;2023-08-06T03:20:18;15.88;;;9.00;;
41685;SDS011;27370;42.764;23.432;2023-08-06T03:22:44;18.05;;;8.98;;
41685;SDS011;27370;42.764;23.432;2023-08-06T03:25:11;15.90;;;8.55;;
41685;SDS011;27370;42.764;23.432;2023-08-06T03:27:37;17.23;;;8.07;;
41685;SDS011;27370;42.764;23.432;2023-08-06T03:30:03;16.90;;;8.98;;
41685;SDS011;27370;42.764;23.432;2023-08-06T03:32:30;17.08;;;9.38;;
41685;SDS011;27370;42.764;23.432;2023-08-06T03:34:56;15.77;;;8.35;;
41685;SDS011;27370;42.764;23.432;2023-08-06T03:37:25;15.45;;;7.70;;
41685;SDS011;27370;42.764;23.432;2023-08-06T03:39:51;14.38;;;7.72;;
41685;SDS011;27370;42.764;23.432;2023-08-06T03:42:17;13.68;;;7.90;;
41685;SDS011;27370;42.764;23.432;2023-08-06T03:44:42;17.63;;;8.60;;
41685;SDS011;27370;42.764;23.432;2023-08-06T03:47:09;18.45;;;9.35;;
41685;SDS011;27370;42.764;23.432;2023-08-06T03:49:35;17.60;;;9.60;;
41685;SDS011;27370;42.764;23.432;2023-08-06T03:52:01;20.20;;;10.43;;
41685;SDS011;27370;42.764;23.432;2023-08-06T03:54:26;18.08;;;10.30;;
41685;SDS011;27370;42.764;23.432;2023-08-06T03:56:52;22.00;;;9.43;;
41685;SDS011;27370;42.764;23.432;2023-08-06T03:59:17;19.10;;;10.00;;
41685;SDS011;27370;42.764;23.432;2023-08-06T04:01:44;19.75;;;10.45;;
41685;SDS011;27370;42.764;23.432;2023-08-06T04:04:10;17.73;;;10.43;;
41685;SDS011;27370;42.764;23.432;2023-08-06T04:06:35;19.63;;;10.52;;
41685;SDS011;27370;42.764;23.432;2023-08-06T04:09:01;19.23;;;10.18;;
41685;SDS011;27370;42.764;23.432;2023-08-06T04:11:26;19.92;;;11.02;;
41685;SDS011;27370;42.764;23.432;2023-08-06T04:13:52;19.15;;;9.73;;
41685;SDS011;27370;42.764;23.432;2023-08-06T04:16:19;18.33;;;9.63;;
41685;SDS011;27370;42.764;23.432;2023-08-06T04:18:46;16.67;;;9.35;;
41685;SDS011;27370;42.764;23.432;2023-08-06T04:21:12;18.00;;;9.93;;
41685;SDS011;27370;42.764;23.432;2023-08-06T04:23:37;16.08;;;9.32;;
41685;SDS011;27370;42.764;23.432;2023-08-06T04:26:05;16.10;;;8.77;;
41685;SDS011;27370;42.764;23.432;2023-08-06T04:28:33;22.25;;;10.48;;
41685;SDS011;27370;42.764;23.432;2023-08-06T04:30:59;19.27;;;11.75;;
41685;SDS011;27370;42.764;23.432;2023-08-06T04:33:25;21.35;;;10.52;;
41685;SDS011;27370;42.764;23.432;2023-08-06T04:35:54;16.80;;;9.10;;
41685;SDS011;27370;42.764;23.432;2023-08-06T04:38:24;16.17;;;8.48;;
41685;SDS011;27370;42.764;23.432;2023-08-06T04:40:51;15.38;;;8.20;;
41685;SDS011;27370;42.764;23.432;2023-08-06T04:43:17;15.52;;;8.38;;
41685;SDS011;27370;42.764;23.432;2023-08-06T04:45:46;17.17;;;9.95;;
41685;SDS011;27370;42.764;23.432;2023-08-06T04:48:12;16.83;;;9.88;;
41685;SDS011;27370;42.764;23.432;2023-08-06T04:50:38;17.73;;;10.00;;
41685;SDS011;27370;42.764;23.432;2023-08-06T04:53:07;16.77;;;10.07;;
41685;SDS011;27370;42.764;23.432;2023-08-06T04:55:33;18.52;;;10.15;;
41685;SDS011;27370;42.764;23.432;2023-08-06T04:57:58;17.85;;;10.77;;
41685;SDS011;27370;42.764;23.432;2023-08-06T05:00:24;17.00;;;10.65;;
41685;SDS011;27370;42.764;23.432;2023-08-06T05:02:49;17.10;;;10.07;;
41685;SDS011;27370;42.764;23.432;2023-08-06T05:05:15;17.25;;;9.95;;
41685;SDS011;27370;42.764;23.432;2023-08-06T05:07:40;18.98;;;10.82;;
41685;SDS011;27370;42.764;23.432;2023-08-06T05:10:06;17.92;;;10.10;;
41685;SDS011;27370;42.764;23.432;2023-08-06T05:12:31;16.58;;;10.20;;
41685;SDS011;27370;42.764;23.432;2023-08-06T05:14:57;17.45;;;9.43;;
41685;SDS011;27370;42.764;23.432;2023-08-06T05:17:22;18.58;;;9.52;;
41685;SDS011;27370;42.764;23.432;2023-08-06T05:19:49;17.20;;;9.30;;
41685;SDS011;27370;42.764;23.432;2023-08-06T05:22:14;16.88;;;8.80;;
41685;SDS011;27370;42.764;23.432;2023-08-06T05:24:40;14.68;;;8.23;;
41685;SDS011;27370;42.764;23.432;2023-08-06T05:27:05;14.23;;;8.02;;
41685;SDS011;27370;42.764;23.432;2023-08-06T05:29:31;12.52;;;7.10;;
41685;SDS011;27370;42.764;23.432;2023-08-06T05:31:56;11.55;;;5.50;;
41685;SDS011;27370;42.764;23.432;2023-08-06T05:34:22;9.57;;;4.82;;
41685;SDS011;27370;42.764;23.432;2023-08-06T05:36:47;9.73;;;4.70;;
41685;SDS011;27370;42.764;23.432;2023-08-06T05:39:13;12.13;;;5.15;;
41685;SDS011;27370;42.764;23.432;2023-08-06T05:41:38;8.30;;;4.40;;
41685;SDS011;27370;42.764;23.432;2023-08-06T05:44:03;9.02;;;4.32;;
41685;SDS011;27370;42.764;23.432;2023-08-06T05:46:29;11.88;;;4.97;;
41685;SDS011;27370;42.764;23.432;2023-08-06T05:48:54;11.45;;;4.88;;
41685;SDS011;27370;42.764;23.432;2023-08-06T05:51:20;9.90;;;4.78;;
41685;SDS011;27370;42.764;23.432;2023-08-06T05:53:45;8.85;;;4.50;;
41685;SDS011;27370;42.764;23.432;2023-08-06T05:56:12;9.05;;;4.75;;
41685;SDS011;27370;42.764;23.432;2023-08-06T05:58:37;10.80;;;4.43;;
41685;SDS011;27370;42.764;23.432;2023-08-06T06:01:03;8.25;;;4.22;;
41685;SDS011;27370;42.764;23.432;2023-08-06T06:03:28;7.22;;;3.65;;
41685;SDS011;27370;42.764;23.432;2023-08-06T06:05:54;6.05;;;3.13;;
41685;SDS011;27370;42.764;23.432;2023-08-06T06:08:19;8.32;;;3.28;;
41685;SDS011;27370;42.764;23.432;2023-08-06T06:10:45;6.70;;;3.28;;
41685;SDS011;27370;42.764;23.432;2023-08-06T06:13:10;10.77;;;3.78;;
41685;SDS011;27370;42.764;23.432;2023-08-06T06:15:36;7.50;;;3.35;;
41685;SDS011;27370;42.764;23.432;2023-08-06T06:18:01;6.45;;;3.35;;
41685;SDS011;27370;42.764;23.432;2023-08-06T06:20:26;8.73;;;3.97;;
41685;SDS011;27370;42.764;23.432;2023-08-06T06:22:52;8.00;;;4.10;;
41685;SDS011;27370;42.764;23.432;2023-08-06T06:25:17;10.35;;;4.60;;
41685;SDS011;27370;42.764;23.432;2023-08-06T06:27:43;8.82;;;4.30;;
41685;SDS011;27370;42.764;23.432;2023-08-06T06:30:08;8.20;;;4.07;;
41685;SDS011;27370;42.764;23.432;2023-08-06T06:32:34;7.53;;;3.72;;
41685;SDS011;27370;42.764;23.432;2023-08-06T06:35:00;6.35;;;3.30;;
41685;SDS011;27370;42.764;23.432;2023-08-06T06:37:26;7.10;;;3.20;;
41685;SDS011;27370;42.764;23.432;2023-08-06T06:39:51;6.20;;;3.08;;
41685;SDS011;27370;42.764;23.432;2023-08-06T06:42:17;5.22;;;2.50;;
41685;SDS011;27370;42.764;23.432;2023-08-06T06:44:46;5.15;;;2.40;;
41685;SDS011;27370;42.764;23.432;2023-08-06T06:47:12;6.85;;;2.20;;
41685;SDS011;27370;42.764;23.432;2023-08-06T06:49:37;3.20;;;1.88;;
41685;SDS011;27370;42.764;23.432;2023-08-06T06:52:03;3.92;;;2.00;;
41685;SDS011;27370;42.764;23.432;2023-08-06T06:54:28;3.55;;;1.80;;
41685;SDS011;27370;42.764;23.432;2023-08-06T06:56:54;4.30;;;1.83;;
41685;SDS011;27370;42.764;23.432;2023-08-06T06:59:19;4.68;;;1.83;;
41685;SDS011;27370;42.764;23.432;2023-08-06T07:01:45;4.18;;;1.80;;
41685;SDS011;27370;42.764;23.432;2023-08-06T07:04:10;3.83;;;1.85;;
41685;SDS011;27370;42.764;23.432;2023-08-06T07:06:36;3.20;;;1.88;;
41685;SDS011;27370;42.764;23.432;2023-08-06T07:09:01;5.45;;;2.08;;
41685;SDS011;27370;42.764;23.432;2023-08-06T07:11:27;3.28;;;2.08;;
41685;SDS011;27370;42.764;23.432;2023-08-06T07:13:56;3.72;;;1.63;;
41685;SDS011;27370;42.764;23.432;2023-08-06T07:16:23;3.88;;;1.90;;
41685;SDS011;27370;42.764;23.432;2023-08-06T07:18:48;4.65;;;2.30;;
41685;SDS011;27370;42.764;23.432;2023-08-06T07:21:14;4.63;;;2.33;;
41685;SDS011;27370;42.764;23.432;2023-08-06T07:23:39;4.43;;;2.10;;
41685;SDS011;27370;42.764;23.432;2023-08-06T07:26:05;5.60;;;2.45;;
41685;SDS011;27370;42.764;23.432;2023-08-06T07:28:30;4.20;;;2.40;;
41685;SDS011;27370;42.764;23.432;2023-08-06T07:30:56;3.67;;;2.10;;
41685;SDS011;27370;42.764;23.432;2023-08-06T07:33:21;3.58;;;2.22;;
41685;SDS011;27370;42.764;23.432;2023-08-06T07:35:46;6.20;;;2.67;;
41685;SDS011;27370;42.764;23.432;2023-08-06T07:38:12;4.43;;;2.38;;
41685;SDS011;27370;42.764;23.432;2023-08-06T07:40:38;5.82;;;2.78;;
41685;SDS011;27370;42.764;23.432;2023-08-06T07:43:04;5.80;;;2.72;;
41685;SDS011;27370;42.764;23.432;2023-08-06T07:45:36;6.43;;;2.60;;
41685;SDS011;27370;42.764;23.432;2023-08-06T07:48:02;6.25;;;2.60;;
41685;SDS011;27370;42.764;23.432;2023-08-06T07:50:28;8.35;;;2.80;;
41685;SDS011;27370;42.764;23.432;2023-08-06T07:52:54;7.18;;;2.70;;
41685;SDS011;27370;42.764;23.432;2023-08-06T07:55:19;4.97;;;2.60;;
41685;SDS011;27370;42.764;23.432;2023-08-06T07:57:45;8.65;;;2.80;;
41685;SDS011;27370;42.764;23.432;2023-08-06T08:00:10;6.68;;;3.00;;
41685;SDS011;27370;42.764;23.432;2023-08-06T08:05:05;5.32;;;2.63;;
41685;SDS011;27370;42.764;23.432;2023-08-06T08:07:33;5.57;;;2.47;;
41685;SDS011;27370;42.764;23.432;2023-08-06T08:09:59;9.07;;;3.08;;
41685;SDS011;27370;42.764;23.432;2023-08-06T08:12:24;4.32;;;2.60;;
41685;SDS011;27370;42.764;23.432;2023-08-06T08:14:50;5.53;;;2.55;;
41685;SDS011;27370;42.764;23.432;2023-08-06T08:17:15;5.72;;;2.60;;
41685;SDS011;27370;42.764;23.432;2023-08-06T08:19:41;7.13;;;2.72;;
41685;SDS011;27370;42.764;23.432;2023-08-06T08:22:06;5.80;;;2.50;;
41685;SDS011;27370;42.764;23.432;2023-08-06T08:24:32;5.47;;;2.20;;
41685;SDS011;27370;42.764;23.432;2023-08-06T08:26:58;5.38;;;2.53;;
41685;SDS011;27370;42.764;23.432;2023-08-06T08:29:23;5.20;;;2.65;;
41685;SDS011;27370;42.764;23.432;2023-08-06T08:31:49;6.00;;;2.95;;
41685;SDS011;27370;42.764;23.432;2023-08-06T08:34:15;4.82;;;2.70;;
41685;SDS011;27370;42.764;23.432;2023-08-06T08:36:41;5.00;;;2.50;;
41685;SDS011;27370;42.764;23.432;2023-08-06T08:39:07;7.53;;;2.83;;
41685;SDS011;27370;42.764;23.432;2023-08-06T08:41:33;6.28;;;2.55;;
41685;SDS011;27370;42.764;23.432;2023-08-06T08:44:01;7.82;;;3.10;;
41685;SDS011;27370;42.764;23.432;2023-08-06T08:46:29;7.05;;;2.92;;
41685;SDS011;27370;42.764;23.432;2023-08-06T08:51:24;4.68;;;2.40;;
41685;SDS011;27370;42.764;23.432;2023-08-06T08:53:52;5.07;;;2.65;;
41685;SDS011;27370;42.764;23.432;2023-08-06T08:58:46;8.10;;;3.00;;
41685;SDS011;27370;42.764;23.432;2023-08-06T09:01:13;6.60;;;2.58;;
41685;SDS011;27370;42.764;23.432;2023-08-06T09:03:40;6.82;;;2.83;;
41685;SDS011;27370;42.764;23.432;2023-08-06T09:06:06;6.18;;;3.10;;
41685;SDS011;27370;42.764;23.432;2023-08-06T09:08:37;4.43;;;2.60;;
41685;SDS011;27370;42.764;23.432;2023-08-06T09:11:12;7.05;;;2.83;;
41685;SDS011;27370;42.764;23.432;2023-08-06T09:13:38;8.30;;;2.50;;
41685;SDS011;27370;42.764;23.432;2023-08-06T09:16:04;6.07;;;2.35;;
41685;SDS011;27370;42.764;23.432;2023-08-06T09:18:29;5.05;;;2.67;;
41685;SDS011;27370;42.764;23.432;2023-08-06T09:20:56;5.07;;;2.70;;
41685;SDS011;27370;42.764;23.432;2023-08-06T09:23:27;6.55;;;2.90;;
41685;SDS011;27370;42.764;23.432;2023-08-06T09:25:58;5.20;;;2.47;;
41685;SDS011;27370;42.764;23.432;2023-08-06T09:28:29;8.23;;;2.95;;
41685;SDS011;27370;42.764;23.432;2023-08-06T09:31:03;6.70;;;2.97;;
41685;SDS011;27370;42.764;23.432;2023-08-06T09:33:29;5.63;;;2.60;;
41685;SDS011;27370;42.764;23.432;2023-08-06T09:35:54;6.10;;;2.80;;
41685;SDS011;27370;42.764;23.432;2023-08-06T09:38:20;7.47;;;3.33;;
41685;SDS011;27370;42.764;23.432;2023-08-06T09:40:45;6.65;;;2.90;;
41685;SDS011;27370;42.764;23.432;2023-08-06T09:43:12;7.15;;;2.92;;
41685;SDS011;27370;42.764;23.432;2023-08-06T09:45:38;12.45;;;3.28;;
41685;SDS011;27370;42.764;23.432;2023-08-06T09:48:04;8.32;;;2.97;;
41685;SDS011;27370;42.764;23.432;2023-08-06T09:50:31;5.53;;;2.72;;
41685;SDS011;27370;42.764;23.432;2023-08-06T09:52:58;5.50;;;2.97;;
41685;SDS011;27370;42.764;23.432;2023-08-06T09:55:25;8.73;;;2.92;;
41685;SDS011;27370;42.764;23.432;2023-08-06T09:57:51;7.13;;;3.05;;
41685;SDS011;27370;42.764;23.432;2023-08-06T10:00:17;7.07;;;2.75;;
41685;SDS011;27370;42.764;23.432;2023-08-06T10:02:46;6.68;;;2.78;;
41685;SDS011;27370;42.764;23.432;2023-08-06T10:05:12;7.18;;;3.10;;
41685;SDS011;27370;42.764;23.432;2023-08-06T10:07:37;6.72;;;2.97;;
41685;SDS011;27370;42.764;23.432;2023-08-06T10:10:05;7.65;;;2.58;;
41685;SDS011;27370;42.764;23.432;2023-08-06T10:12:32;4.88;;;2.35;;
41685;SDS011;27370;42.764;23.432;2023-08-06T10:15:02;3.50;;;2.17;;
41685;SDS011;27370;42.764;23.432;2023-08-06T10:17:29;3.72;;;2.00;;
41685;SDS011;27370;42.764;23.432;2023-08-06T10:19:58;5.18;;;2.22;;
41685;SDS011;27370;42.764;23.432;2023-08-06T10:22:24;4.95;;;2.45;;
41685;SDS011;27370;42.764;23.432;2023-08-06T10:27:20;4.00;;;2.30;;
41685;SDS011;27370;42.764;23.432;2023-08-06T10:29:55;4.95;;;2.25;;
41685;SDS011;27370;42.764;23.432;2023-08-06T10:32:20;3.90;;;2.30;;
41685;SDS011;27370;42.764;23.432;2023-08-06T10:34:56;5.00;;;2.67;;
41685;SDS011;27370;42.764;23.432;2023-08-06T10:37:23;5.88;;;2.90;;
41685;SDS011;27370;42.764;23.432;2023-08-06T10:40:02;6.10;;;2.65;;
41685;SDS011;27370;42.764;23.432;2023-08-06T10:42:31;7.00;;;2.80;;
41685;SDS011;27370;42.764;23.432;2023-08-06T10:45:15;4.75;;;2.60;;
41685;SDS011;27370;42.764;23.432;2023-08-06T10:47:43;5.25;;;2.70;;
41685;SDS011;27370;42.764;23.432;2023-08-06T10:50:15;5.78;;;2.63;;
41685;SDS011;27370;42.764;23.432;2023-08-06T10:52:45;4.65;;;2.78;;
41685;SDS011;27370;42.764;23.432;2023-08-06T10:55:31;4.70;;;2.78;;
41685;SDS011;27370;42.764;23.432;2023-08-06T10:57:57;7.70;;;2.75;;
41685;SDS011;27370;42.764;23.432;2023-08-06T11:00:23;7.78;;;2.90;;
41685;SDS011;27370;42.764;23.432;2023-08-06T11:02:49;5.53;;;2.88;;
41685;SDS011;27370;42.764;23.432;2023-08-06T11:05:16;6.93;;;2.92;;
41685;SDS011;27370;42.764;23.432;2023-08-06T11:07:42;6.70;;;2.72;;
41685;SDS011;27370;42.764;23.432;2023-08-06T11:10:09;5.68;;;2.60;;
41685;SDS011;27370;42.764;23.432;2023-08-06T11:12:36;5.28;;;2.70;;
41685;SDS011;27370;42.764;23.432;2023-08-06T11:15:02;5.22;;;2.75;;
41685;SDS011;27370;42.764;23.432;2023-08-06T11:17:29;5.00;;;2.75;;
41685;SDS011;27370;42.764;23.432;2023-08-06T11:19:55;5.38;;;2.88;;
41685;SDS011;27370;42.764;23.432;2023-08-06T11:22:23;7.97;;;3.05;;
41685;SDS011;27370;42.764;23.432;2023-08-06T11:24:49;8.00;;;3.38;;
41685;SDS011;27370;42.764;23.432;2023-08-06T11:27:15;5.95;;;3.22;;
41685;SDS011;27370;42.764;23.432;2023-08-06T11:29:42;6.88;;;3.65;;
41685;SDS011;27370;42.764;23.432;2023-08-06T11:32:09;7.65;;;3.80;;
41685;SDS011;27370;42.764;23.432;2023-08-06T11:34:35;6.57;;;3.75;;
41685;SDS011;27370;42.764;23.432;2023-08-06T11:37:04;7.88;;;3.78;;
41685;SDS011;27370;42.764;23.432;2023-08-06T11:39:32;10.23;;;4.40;;
41685;SDS011;27370;42.764;23.432;2023-08-06T11:42:09;8.70;;;4.43;;
41685;SDS011;27370;42.764;23.432;2023-08-06T11:44:37;8.23;;;4.70;;
41685;SDS011;27370;42.764;23.432;2023-08-06T11:47:03;9.52;;;4.70;;
41685;SDS011;27370;42.764;23.432;2023-08-06T11:54:40;9.50;;;4.15;;
41685;SDS011;27370;42.764;23.432;2023-08-06T11:57:05;7.90;;;4.38;;
41685;SDS011;27370;42.764;23.432;2023-08-06T11:59:32;7.95;;;4.28;;
41685;SDS011;27370;42.764;23.432;2023-08-06T12:01:58;6.60;;;3.15;;
41685;SDS011;27370;42.764;23.432;2023-08-06T12:04:26;7.60;;;3.58;;
41685;SDS011;27370;42.764;23.432;2023-08-06T12:06:51;6.72;;;3.13;;
41685;SDS011;27370;42.764;23.432;2023-08-06T12:09:18;6.93;;;3.00;;
41685;SDS011;27370;42.764;23.432;2023-08-06T12:11:43;5.35;;;3.30;;
41685;SDS011;27370;42.764;23.432;2023-08-06T12:14:09;7.45;;;3.80;;
41685;SDS011;27370;42.764;23.432;2023-08-06T12:16:34;7.70;;;4.32;;
41685;SDS011;27370;42.764;23.432;2023-08-06T12:19:01;6.68;;;4.10;;
41685;SDS011;27370;42.764;23.432;2023-08-06T12:21:29;8.35;;;4.30;;
41685;SDS011;27370;42.764;23.432;2023-08-06T12:23:54;8.02;;;3.92;;
41685;SDS011;27370;42.764;23.432;2023-08-06T12:26:20;7.57;;;4.13;;
41685;SDS011;27370;42.764;23.432;2023-08-06T12:28:45;9.25;;;4.45;;
41685;SDS011;27370;42.764;23.432;2023-08-06T12:31:11;9.15;;;4.63;;
41685;SDS011;27370;42.764;23.432;2023-08-06T12:33:36;8.50;;;4.30;;
41685;SDS011;27370;42.764;23.432;2023-08-06T12:36:02;8.70;;;4.70;;
41685;SDS011;27370;42.764;23.432;2023-08-06T12:38:27;6.65;;;3.85;;
41685;SDS011;27370;42.764;23.432;2023-08-06T12:40:54;5.18;;;3.03;;
41685;SDS011;27370;42.764;23.432;2023-08-06T12:43:19;5.93;;;2.85;;
41685;SDS011;27370;42.764;23.432;2023-08-06T12:45:44;5.75;;;2.47;;
41685;SDS011;27370;42.764;23.432;2023-08-06T12:48:10;6.55;;;2.83;;
41685;SDS011;27370;42.764;23.432;2023-08-06T12:50:36;5.10;;;2.78;;
41685;SDS011;27370;42.764;23.432;2023-08-06T12:53:01;6.80;;;3.20;;
41685;SDS011;27370;42.764;23.432;2023-08-06T12:55:27;6.80;;;3.30;;
41685;SDS011;27370;42.764;23.432;2023-08-06T12:57:52;8.00;;;3.85;;
41685;SDS011;27370;42.764;23.432;2023-08-06T13:00:18;6.68;;;3.42;;
41685;SDS011;27370;42.764;23.432;2023-08-06T13:02:44;6.80;;;3.65;;
41685;SDS011;27370;42.764;23.432;2023-08-06T13:05:09;8.38;;;3.63;;
41685;SDS011;27370;42.764;23.432;2023-08-06T13:07:35;6.38;;;3.05;;
41685;SDS011;27370;42.764;23.432;2023-08-06T13:10:00;6.53;;;3.20;;
41685;SDS011;27370;42.764;23.432;2023-08-06T13:12:25;7.07;;;3.22;;
41685;SDS011;27370;42.764;23.432;2023-08-06T13:14:51;8.20;;;3.33;;
41685;SDS011;27370;42.764;23.432;2023-08-06T13:17:18;7.10;;;3.13;;
41685;SDS011;27370;42.764;23.432;2023-08-06T13:19:43;6.53;;;3.50;;
41685;SDS011;27370;42.764;23.432;2023-08-06T13:22:09;7.88;;;3.25;;
41685;SDS011;27370;42.764;23.432;2023-08-06T13:24:35;7.78;;;3.50;;
41685;SDS011;27370;42.764;23.432;2023-08-06T13:27:00;7.05;;;3.72;;
41685;SDS011;27370;42.764;23.432;2023-08-06T13:29:27;5.53;;;3.10;;
41685;SDS011;27370;42.764;23.432;2023-08-06T13:31:52;5.78;;;2.90;;
41685;SDS011;27370;42.764;23.432;2023-08-06T13:34:19;6.00;;;3.33;;
41685;SDS011;27370;42.764;23.432;2023-08-06T13:36:44;5.68;;;3.40;;
41685;SDS011;27370;42.764;23.432;2023-08-06T13:39:10;8.77;;;3.60;;
41685;SDS011;27370;42.764;23.432;2023-08-06T13:41:37;6.25;;;3.22;;
41685;SDS011;27370;42.764;23.432;2023-08-06T13:44:03;7.72;;;3.33;;
41685;SDS011;27370;42.764;23.432;2023-08-06T13:46:29;38.90;;;5.22;;
41685;SDS011;27370;42.764;23.432;2023-08-06T13:48:54;8.18;;;3.67;;
41685;SDS011;27370;42.764;23.432;2023-08-06T13:51:20;6.50;;;3.47;;
41685;SDS011;27370;42.764;23.432;2023-08-06T13:53:46;7.03;;;3.17;;
41685;SDS011;27370;42.764;23.432;2023-08-06T13:56:11;5.75;;;3.20;;
41685;SDS011;27370;42.764;23.432;2023-08-06T13:58:37;6.43;;;2.97;;
41685;SDS011;27370;42.764;23.432;2023-08-06T14:01:03;6.45;;;3.28;;
41685;SDS011;27370;42.764;23.432;2023-08-06T14:03:29;8.18;;;4.13;;
41685;SDS011;27370;42.764;23.432;2023-08-06T14:05:55;6.68;;;3.58;;
41685;SDS011;27370;42.764;23.432;2023-08-06T14:08:21;7.50;;;3.85;;
41685;SDS011;27370;42.764;23.432;2023-08-06T14:10:48;7.60;;;3.20;;
41685;SDS011;27370;42.764;23.432;2023-08-06T14:13:14;7.45;;;3.85;;
41685;SDS011;27370;42.764;23.432;2023-08-06T14:15:39;6.25;;;3.50;;
41685;SDS011;27370;42.764;23.432;2023-08-06T14:18:05;7.65;;;3.28;;
41685;SDS011;27370;42.764;23.432;2023-08-06T14:20:33;6.25;;;3.10;;
41685;SDS011;27370;42.764;23.432;2023-08-06T14:22:59;9.23;;;4.30;;
41685;SDS011;27370;42.764;23.432;2023-08-06T14:25:25;7.43;;;3.47;;
41685;SDS011;27370;42.764;23.432;2023-08-06T14:27:50;7.47;;;3.70;;
41685;SDS011;27370;42.764;23.432;2023-08-06T14:30:16;7.55;;;3.20;;
41685;SDS011;27370;42.764;23.432;2023-08-06T14:32:41;6.65;;;3.67;;
41685;SDS011;27370;42.764;23.432;2023-08-06T14:35:07;6.93;;;3.60;;
41685;SDS011;27370;42.764;23.432;2023-08-06T14:37:32;6.55;;;3.40;;
41685;SDS011;27370;42.764;23.432;2023-08-06T14:39:58;6.80;;;3.33;;
41685;SDS011;27370;42.764;23.432;2023-08-06T14:42:23;7.70;;;3.70;;
41685;SDS011;27370;42.764;23.432;2023-08-06T14:44:49;9.50;;;4.00;;